Time;durP1;ratioP1;P1;durP2;ratioP2;P2;SDS_P1;SDS_P2;PMS_P1;PMS_P2;Temp;Humidity;BMP_temperature;BMP_pressure;BME280_temperature;BME280_humidity;BME280_pressure;Samples;Min_cycle;Max_cycle;Signal;HPM_P1;HPM_P2
2022/12/21 08:21:53;;;;;;;65.90;24.38;;;7.90;99.90;;;;;;6184426;23;20017;-91
2022/12/21 08:24:19;;;;;;;68.10;23.38;;;7.90;99.90;;;;;;6183764;23;20017;-90
2022/12/21 08:26:44;;;;;;;102.38;48.45;;;8.00;99.90;;;;;;6185915;23;20091;-94
2022/12/21 08:29:14;;;;;;;103.63;48.25;;;8.20;99.90;;;;;;6188573;23;20075;-94
2022/12/21 08:31:41;;;;;;;78.07;29.75;;;8.20;99.90;;;;;;6195583;23;20029;-93
2022/12/21 08:34:07;;;;;;;73.82;26.05;;;8.30;99.90;;;;;;6202851;23;20052;-90
2022/12/21 08:36:32;;;;;;;70.50;26.85;;;8.30;99.90;;;;;;6198504;23;20024;-91
2022/12/21 08:38:58;;;;;;;98.15;46.95;;;8.30;99.90;;;;;;6191969;23;20024;-94
2022/12/21 08:41:24;;;;;;;94.88;46.08;;;8.30;99.90;;;;;;6184260;23;20458;-90
2022/12/21 08:43:50;;;;;;;73.50;27.45;;;8.40;99.90;;;;;;6158109;23;20213;-89
2022/12/21 08:46:16;;;;;;;71.65;24.83;;;8.30;99.90;;;;;;6182263;23;20020;-89
2022/12/21 08:48:41;;;;;;;145.13;52.72;;;8.20;99.90;;;;;;6184185;23;20035;-88
2022/12/21 08:51:07;;;;;;;170.13;55.55;;;8.20;99.90;;;;;;6182405;23;20013;-87
2022/12/21 08:53:37;;;;;;;130.02;51.05;;;8.10;99.90;;;;;;6185200;23;20013;-88
2022/12/21 08:56:03;;;;;;;94.93;28.50;;;8.10;99.90;;;;;;6184615;23;20013;-88
2022/12/21 08:58:29;;;;;;;83.40;24.55;;;8.00;99.90;;;;;;6184954;23;20021;-88
2022/12/21 09:00:57;;;;;;;155.80;54.10;;;8.00;99.90;;;;;;6186619;23;20012;-88
2022/12/21 09:03:26;;;;;;;95.88;28.25;;;8.10;99.90;;;;;;6184933;23;20540;-88
2022/12/21 09:05:54;;;;;;;73.05;25.20;;;8.10;99.90;;;;;;6184816;23;20013;-89
2022/12/21 09:08:20;;;;;;;170.95;52.97;;;8.00;99.90;;;;;;6184716;23;20338;-88
2022/12/21 09:10:45;;;;;;;108.70;29.88;;;8.00;99.90;;;;;;6185595;23;20017;-87
2022/12/21 09:13:11;;;;;;;187.88;55.78;;;8.00;99.90;;;;;;6185652;23;20493;-88
2022/12/21 09:15:43;;;;;;;99.78;30.05;;;8.10;99.90;;;;;;6185958;23;20521;-88
2022/12/21 09:18:10;;;;;;;156.00;50.08;;;8.00;99.90;;;;;;6186222;23;20009;-88
2022/12/21 09:20:36;;;;;;;132.02;47.35;;;8.00;99.90;;;;;;6186595;23;20049;-89
2022/12/21 09:23:02;;;;;;;133.98;47.58;;;8.00;99.90;;;;;;6184442;23;20020;-88
2022/12/21 09:25:27;;;;;;;67.18;23.38;;;8.00;99.90;;;;;;6185172;23;20019;-88
2022/12/21 09:27:53;;;;;;;135.70;46.78;;;8.00;99.90;;;;;;6184763;23;20024;-89
2022/12/21 09:30:19;;;;;;;67.85;22.80;;;8.00;99.90;;;;;;6184861;23;20438;-88
2022/12/21 09:32:45;;;;;;;82.43;27.55;;;8.00;99.90;;;;;;6184542;23;20075;-88
2022/12/21 09:35:10;;;;;;;68.22;22.60;;;7.90;99.90;;;;;;6186284;23;20045;-87
2022/12/21 09:37:36;;;;;;;81.15;25.48;;;7.90;99.90;;;;;;6184265;23;20009;-87
2022/12/21 09:40:04;;;;;;;116.47;46.30;;;8.00;99.90;;;;;;6186827;23;20013;-89
2022/12/21 09:42:52;;;;;;;137.95;50.35;;;8.00;99.90;;;;;;6187566;23;20020;-88
2022/12/21 09:45:39;;;;;;;110.88;47.95;;;8.00;99.90;;;;;;6190221;23;20051;-88
2022/12/21 09:48:12;;;;;;;71.05;26.10;;;8.00;99.90;;;;;;6188207;23;20088;-86
2022/12/21 09:50:47;;;;;;;69.00;25.45;;;8.00;99.90;;;;;;6197946;23;20049;-87
2022/12/21 09:53:26;;;;;;;115.32;47.05;;;8.00;99.90;;;;;;6203192;23;20013;-88
2022/12/21 09:55:58;;;;;;;118.22;47.35;;;8.00;99.90;;;;;;6197987;23;20403;-87
2022/12/21 09:58:41;;;;;;;108.88;45.33;;;8.00;99.90;;;;;;6198281;23;20365;-87
2022/12/21 10:01:27;;;;;;;81.28;27.55;;;8.00;99.90;;;;;;6199810;23;20088;-87
2022/12/21 10:04:06;;;;;;;115.28;47.50;;;8.00;99.90;;;;;;6142071;23;20048;-87
2022/12/21 10:06:58;;;;;;;68.68;25.05;;;8.10;99.90;;;;;;6196959;23;20067;-88
2022/12/21 10:09:43;;;;;;;61.90;20.35;;;8.10;99.90;;;;;;6195137;23;20047;-87
2022/12/21 10:12:21;;;;;;;62.78;22.67;;;8.10;99.90;;;;;;6203917;23;20013;-87
2022/12/21 10:15:22;;;;;;;99.88;43.95;;;8.10;99.90;;;;;;6198715;23;20013;-87
2022/12/21 10:18:15;;;;;;;71.97;25.08;;;8.20;99.90;;;;;;6076157;23;20022;-88
2022/12/21 10:20:52;;;;;;;100.20;43.17;;;8.20;99.90;;;;;;6094396;23;20053;-88
2022/12/21 10:23:41;;;;;;;69.07;24.70;;;8.20;99.90;;;;;;6094642;23;20279;-88
2022/12/21 10:26:14;;;;;;;63.75;21.80;;;8.20;99.90;;;;;;6093975;23;20050;-88
2022/12/21 10:28:47;;;;;;;107.38;45.50;;;8.20;99.90;;;;;;6095271;23;20348;-87
2022/12/21 10:31:27;;;;;;;102.70;43.28;;;8.30;99.90;;;;;;6070326;23;20438;-88
2022/12/21 10:33:55;;;;;;;97.97;43.03;;;8.40;99.90;;;;;;6094034;23;20034;-87
2022/12/21 10:36:33;;;;;;;93.60;43.17;;;8.40;99.90;;;;;;6070020;23;20026;-88
2022/12/21 10:38:59;;;;;;;88.00;41.35;;;8.50;99.90;;;;;;6070397;23;20044;-88
2022/12/21 10:41:28;;;;;;;88.78;41.00;;;8.50;99.90;;;;;;6093958;23;20022;-88
2022/12/21 10:43:57;;;;;;;82.30;39.63;;;8.50;99.90;;;;;;6070654;23;20093;-87
2022/12/21 10:46:29;;;;;;;79.47;39.22;;;8.60;99.90;;;;;;6094402;23;20014;-88
2022/12/21 10:49:00;;;;;;;85.00;39.25;;;8.60;99.90;;;;;;6069603;23;20050;-88
2022/12/21 10:51:32;;;;;;;65.57;25.50;;;8.70;99.90;;;;;;6107565;23;20021;-88
2022/12/21 10:54:06;;;;;;;63.47;23.13;;;8.60;99.90;;;;;;6184585;23;20046;-88
2022/12/21 10:56:52;;;;;;;62.33;24.98;;;8.60;99.90;;;;;;6184377;23;20013;-87
2022/12/21 10:59:29;;;;;;;75.78;35.42;;;8.70;99.90;;;;;;6184086;23;20013;-88
2022/12/21 11:01:55;;;;;;;67.32;34.92;;;8.80;99.90;;;;;;6159446;23;20021;-87
2022/12/21 11:04:24;;;;;;;66.40;34.83;;;8.80;99.90;;;;;;6185378;23;20060;-89
2022/12/21 11:06:57;;;;;;;54.33;21.33;;;8.70;99.90;;;;;;6184122;23;20013;-89
2022/12/21 11:09:37;;;;;;;63.78;34.85;;;8.70;99.90;;;;;;6181717;23;20059;-88
2022/12/21 11:12:22;;;;;;;45.50;20.13;;;8.70;99.90;;;;;;6184119;23;20354;-92
2022/12/21 11:14:49;;;;;;;46.15;20.20;;;8.70;99.90;;;;;;6184291;23;20013;-89
2022/12/21 11:17:28;;;;;;;63.70;32.85;;;8.60;99.90;;;;;;6182539;23;20020;-87
2022/12/21 11:20:04;;;;;;;64.10;34.53;;;8.60;99.90;;;;;;6181476;23;20343;-86
2022/12/21 11:22:31;;;;;;;65.50;33.97;;;8.70;99.90;;;;;;6182811;23;20637;-86
2022/12/21 11:24:59;;;;;;;68.40;34.92;;;8.70;99.90;;;;;;6185181;23;20068;-90
2022/12/21 11:27:32;;;;;;;63.60;33.92;;;8.70;99.90;;;;;;6158728;23;20009;-89
2022/12/21 11:29:59;;;;;;;49.42;20.20;;;8.70;99.90;;;;;;6183486;23;20079;-89
2022/12/21 11:32:26;;;;;;;51.28;21.27;;;8.70;99.90;;;;;;6183396;23;20021;-88
2022/12/21 11:35:02;;;;;;;65.78;35.13;;;8.70;99.90;;;;;;6183363;23;20391;-91
2022/12/21 11:37:37;;;;;;;57.15;21.70;;;8.70;99.90;;;;;;6184083;23;20028;-91
2022/12/21 11:40:11;;;;;;;53.95;22.23;;;8.70;99.90;;;;;;6184312;23;20013;-88
2022/12/21 11:42:59;;;;;;;61.47;33.70;;;8.70;99.90;;;;;;6186399;23;20504;-86
2022/12/21 11:45:43;;;;;;;61.08;34.92;;;8.80;99.90;;;;;;6188484;23;20048;-92
2022/12/21 11:48:23;;;;;;;60.15;35.08;;;8.80;99.90;;;;;;6199582;23;20020;-89
2022/12/21 11:51:07;;;;;;;59.22;34.40;;;8.80;99.90;;;;;;6171687;23;20092;-94
2022/12/21 11:54:05;;;;;;;62.70;35.17;;;8.90;99.90;;;;;;6171712;23;20027;-96
2022/12/21 11:56:35;;;;;;;58.40;34.70;;;8.90;99.90;;;;;;6168244;23;20024;-91
2022/12/21 11:59:13;;;;;;;51.78;22.02;;;8.90;99.90;;;;;;6208171;23;20009;-92
2022/12/21 12:02:01;;;;;;;61.92;34.90;;;8.90;99.90;;;;;;6178680;23;20442;-91
2022/12/21 12:04:37;;;;;;;59.58;35.17;;;8.90;99.90;;;;;;6184425;23;20338;-88
2022/12/21 12:07:19;;;;;;;52.72;22.48;;;8.90;99.90;;;;;;6180011;23;20021;-85
2022/12/21 12:09:59;;;;;;;52.38;22.75;;;8.90;99.90;;;;;;6181931;23;20021;-85
2022/12/21 12:13:03;;;;;;;53.65;23.05;;;9.00;99.90;;;;;;6182419;23;20021;-85
2022/12/21 12:15:41;;;;;;;58.70;33.90;;;8.90;99.90;;;;;;6182328;23;20013;-85
2022/12/21 12:18:30;;;;;;;51.20;22.40;;;9.00;99.90;;;;;;6181535;23;20012;-85
2022/12/21 12:21:54;;;;;;;58.58;33.70;;;9.00;99.90;;;;;;6206825;23;20357;-86
2022/12/21 12:24:37;;;;;;;59.28;34.10;;;9.00;99.90;;;;;;6084621;23;20026;-85
2022/12/21 12:27:18;;;;;;;52.63;22.88;;;9.00;99.90;;;;;;6068602;23;20014;-85
2022/12/21 12:30:05;;;;;;;51.10;20.13;;;9.00;99.90;;;;;;6067790;23;20140;-84
2022/12/21 12:32:38;;;;;;;59.50;32.92;;;9.00;99.90;;;;;;6067222;23;20787;-84
2022/12/21 12:35:09;;;;;;;57.88;33.80;;;9.00;99.90;;;;;;6067685;23;20022;-83
2022/12/21 12:37:51;;;;;;;56.92;33.40;;;8.90;99.90;;;;;;6092539;23;20066;-84
2022/12/21 12:40:26;;;;;;;54.38;21.90;;;8.90;99.90;;;;;;6067716;23;20054;-84
2022/12/21 12:43:11;;;;;;;58.35;34.67;;;8.90;99.90;;;;;;6068055;23;20019;-84
2022/12/21 12:45:51;;;;;;;56.35;32.65;;;8.90;99.90;;;;;;6091681;23;20321;-84
2022/12/21 12:48:37;;;;;;;49.88;21.58;;;8.90;99.90;;;;;;6067426;23;20348;-84
2022/12/21 12:51:21;;;;;;;59.58;34.00;;;8.90;99.90;;;;;;6065803;23;20022;-84
2022/12/21 12:53:55;;;;;;;56.75;33.65;;;8.90;99.90;;;;;;6065932;23;20026;-83
2022/12/21 12:56:23;;;;;;;54.42;33.53;;;8.80;99.90;;;;;;6066029;23;20022;-84
2022/12/21 12:59:22;;;;;;;43.40;20.65;;;8.80;99.90;;;;;;6163962;23;20461;-84
2022/12/21 13:01:56;;;;;;;52.90;23.55;;;8.70;99.90;;;;;;6181830;23;20013;-84
2022/12/21 13:04:57;;;;;;;49.33;21.70;;;8.70;99.90;;;;;;6183706;23;20024;-85
2022/12/21 13:07:51;;;;;;;50.30;21.75;;;8.60;99.90;;;;;;6067426;23;20043;-85
2022/12/21 13:10:31;;;;;;;45.45;21.88;;;8.60;99.90;;;;;;6067934;23;20493;-84
2022/12/21 13:13:32;;;;;;;47.58;21.88;;;8.60;99.90;;;;;;6091361;23;20055;-85
2022/12/21 13:16:07;;;;;;;53.60;35.28;;;8.60;99.90;;;;;;6037086;23;20018;-85
2022/12/21 13:18:38;;;;;;;45.95;21.20;;;8.70;99.90;;;;;;6068521;23;20552;-86
2022/12/21 13:21:06;;;;;;;53.25;35.45;;;8.60;99.90;;;;;;6091396;23;20802;-86
2022/12/21 13:23:46;;;;;;;46.97;23.35;;;8.80;99.90;;;;;;6068780;23;20029;-86
2022/12/21 13:26:16;;;;;;;54.45;36.10;;;8.80;99.90;;;;;;6044029;23;20364;-86
2022/12/21 13:29:17;;;;;;;51.50;34.38;;;8.80;99.90;;;;;;6068031;23;20021;-86
2022/12/21 13:31:49;;;;;;;50.92;34.08;;;8.90;99.90;;;;;;6068098;23;20353;-86
2022/12/21 13:34:44;;;;;;;45.33;32.95;;;8.90;99.90;;;;;;6068621;23;20022;-86
2022/12/21 13:37:17;;;;;;;44.97;31.83;;;8.90;99.90;;;;;;6061776;23;20054;-86
2022/12/21 13:40:18;;;;;;;45.35;33.30;;;9.00;99.90;;;;;;6092876;23;20179;-86
2022/12/21 13:43:15;;;;;;;37.70;21.10;;;9.00;99.90;;;;;;6069247;23;20089;-89
2022/12/21 13:46:07;;;;;;;46.85;34.78;;;8.90;99.90;;;;;;6207540;23;20013;-89
2022/12/21 13:48:37;;;;;;;45.88;33.65;;;8.90;99.90;;;;;;6179143;23;20017;-84
2022/12/21 13:51:32;;;;;;;48.03;34.10;;;9.00;99.90;;;;;;6181980;23;20434;-85
2022/12/21 13:54:15;;;;;;;42.05;32.13;;;9.00;99.90;;;;;;6183934;23;20024;-87
2022/12/21 13:57:18;;;;;;;43.70;33.88;;;9.00;99.90;;;;;;6184571;23;20016;-86
2022/12/21 13:59:50;;;;;;;38.03;22.20;;;8.90;99.90;;;;;;6184610;23;20013;-87
2022/12/21 14:02:49;;;;;;;35.60;18.77;;;8.90;99.90;;;;;;6156430;23;20021;-87
2022/12/21 14:05:27;;;;;;;42.22;33.63;;;8.90;99.90;;;;;;6183007;23;20012;-90
2022/12/21 14:08:26;;;;;;;41.55;31.38;;;8.90;99.90;;;;;;6182693;23;20480;-86
2022/12/21 14:11:13;;;;;;;43.67;32.08;;;9.00;99.90;;;;;;6206816;23;20052;-84
2022/12/21 14:13:47;;;;;;;38.78;30.58;;;9.00;99.90;;;;;;6155766;23;20021;-86
2022/12/21 14:16:25;;;;;;;38.50;31.50;;;8.90;99.90;;;;;;6156934;23;20048;-87
2022/12/21 14:19:02;;;;;;;38.83;31.15;;;8.90;99.90;;;;;;6184242;23;20013;-86
2022/12/21 14:21:33;;;;;;;43.03;31.85;;;9.00;99.90;;;;;;6184718;23;20009;-86
2022/12/21 14:24:16;;;;;;;35.55;20.02;;;8.90;99.90;;;;;;6183512;23;20017;-86
2022/12/21 14:26:57;;;;;;;33.67;18.27;;;8.90;99.90;;;;;;6184156;23;20013;-86
2022/12/21 14:29:44;;;;;;;35.30;21.35;;;8.90;99.90;;;;;;6184206;23;20017;-86
2022/12/21 14:32:09;;;;;;;37.92;30.92;;;8.90;99.90;;;;;;6183587;23;20016;-86
2022/12/21 14:34:56;;;;;;;43.05;33.03;;;8.90;99.90;;;;;;6157739;23;20147;-86
2022/12/21 14:37:30;;;;;;;41.53;33.70;;;8.90;99.90;;;;;;6182266;23;20016;-84
2022/12/21 14:40:21;;;;;;;40.33;34.20;;;8.90;99.90;;;;;;6181252;23;20028;-84
2022/12/21 14:42:53;;;;;;;43.80;34.33;;;8.90;99.90;;;;;;6184444;23;20013;-82
2022/12/21 14:45:44;;;;;;;45.42;35.40;;;8.80;99.90;;;;;;6183014;23;20017;-83
2022/12/21 14:48:28;;;;;;;;;;;8.80;99.90;;;;;;6183754;23;20013;-83
2022/12/21 14:50:57;;;;;;;39.33;24.33;;;8.60;99.90;;;;;;6181853;23;19982;-83
2022/12/21 14:53:28;;;;;;;34.58;19.70;;;8.60;99.90;;;;;;6181380;23;20466;-83
2022/12/21 14:56:13;;;;;;;39.70;25.17;;;8.50;99.90;;;;;;6181963;23;20088;-83
2022/12/21 14:58:46;;;;;;;44.80;36.65;;;8.50;99.90;;;;;;6182494;23;20041;-82
2022/12/21 15:01:17;;;;;;;45.50;36.25;;;8.50;99.90;;;;;;6182839;23;20070;-82
2022/12/21 15:03:46;;;;;;;39.30;24.13;;;8.50;99.90;;;;;;6182810;23;20496;-82
2022/12/21 15:06:32;;;;;;;34.97;20.25;;;8.50;99.90;;;;;;6181786;23;20016;-83
2022/12/21 15:09:25;;;;;;;40.58;34.92;;;8.40;99.90;;;;;;6180511;23;20024;-83
2022/12/21 15:12:11;;;;;;;42.63;36.63;;;8.40;99.90;;;;;;6183206;23;20020;-82
2022/12/21 15:14:57;;;;;;;36.47;23.17;;;8.40;99.90;;;;;;6182157;23;20052;-83
2022/12/21 15:17:30;;;;;;;40.55;35.72;;;8.40;99.90;;;;;;6182717;23;20022;-83
2022/12/21 15:19:58;;;;;;;39.97;22.55;;;8.40;99.90;;;;;;6181829;23;20013;-83
2022/12/21 15:22:32;;;;;;;42.45;35.58;;;8.40;99.90;;;;;;6182973;23;20335;-84
2022/12/21 15:25:07;;;;;;;37.40;21.30;;;8.40;99.90;;;;;;6182128;23;20075;-82
2022/12/21 15:27:48;;;;;;;43.60;34.50;;;8.40;99.90;;;;;;6183498;23;20084;-84
2022/12/21 15:30:21;;;;;;;36.22;19.35;;;8.40;99.90;;;;;;6181111;23;20009;-82
2022/12/21 15:32:58;;;;;;;31.08;18.90;;;8.40;99.90;;;;;;6183012;23;20097;-83
2022/12/21 15:35:40;;;;;;;32.60;18.75;;;8.30;99.90;;;;;;6207933;23;20044;-84
2022/12/21 15:38:26;;;;;;;36.17;20.20;;;8.30;99.90;;;;;;6182520;23;20076;-84
2022/12/21 15:41:01;;;;;;;40.17;34.10;;;8.30;99.90;;;;;;6181238;23;20017;-86
2022/12/21 15:43:44;;;;;;;40.47;23.08;;;8.30;99.90;;;;;;6182581;23;20013;-86
2022/12/21 15:46:19;;;;;;;35.72;20.25;;;8.40;99.90;;;;;;6178265;23;20040;-86
2022/12/21 15:49:02;;;;;;;39.85;21.50;;;8.30;99.90;;;;;;6187202;23;20438;-86
2022/12/21 15:51:30;;;;;;;41.78;23.35;;;8.30;99.90;;;;;;6183371;23;20012;-83
2022/12/21 15:54:09;;;;;;;36.63;21.23;;;8.30;99.90;;;;;;6156854;23;20013;-84
2022/12/21 15:56:34;;;;;;;42.00;36.50;;;8.30;99.90;;;;;;6184065;23;20013;-83
2022/12/21 15:59:00;;;;;;;40.95;35.00;;;8.30;99.90;;;;;;6181579;23;20065;-83
2022/12/21 16:01:27;;;;;;;38.45;23.15;;;8.30;99.90;;;;;;6180500;23;20063;-84
2022/12/21 16:03:53;;;;;;;39.10;21.30;;;8.30;99.90;;;;;;6183316;23;20084;-83
2022/12/21 16:06:25;;;;;;;37.30;23.50;;;8.20;99.90;;;;;;6181548;23;20009;-84
2022/12/21 16:08:53;;;;;;;38.60;23.35;;;8.10;99.90;;;;;;6180911;23;20076;-84
2022/12/21 16:11:29;;;;;;;37.42;24.25;;;8.10;99.90;;;;;;6181688;23;20442;-83
2022/12/21 16:14:13;;;;;;;33.08;19.77;;;8.10;99.90;;;;;;6183909;23;20016;-81
2022/12/21 16:17:18;;;;;;;42.25;35.55;;;8.10;99.90;;;;;;6180410;23;20501;-82
2022/12/21 16:19:55;;;;;;;35.40;22.02;;;8.10;99.90;;;;;;6162830;23;20135;-81
2022/12/21 16:22:24;;;;;;;42.83;35.28;;;8.10;99.90;;;;;;6181304;23;20096;-82
2022/12/21 16:25:04;;;;;;;40.28;33.45;;;8.10;99.90;;;;;;6182437;23;20021;-82
2022/12/21 16:27:31;;;;;;;39.60;21.98;;;8.20;99.90;;;;;;6184701;23;20020;-87
2022/12/21 16:30:00;;;;;;;35.50;19.55;;;8.20;99.90;;;;;;6182787;23;20398;-84
2022/12/21 16:32:26;;;;;;;36.80;21.45;;;8.10;99.90;;;;;;6183685;23;20020;-83
2022/12/21 16:34:57;;;;;;;37.90;30.85;;;8.10;99.90;;;;;;6214641;23;20013;-84
2022/12/21 16:37:28;;;;;;;36.05;21.85;;;8.20;99.90;;;;;;6195228;23;20084;-87
2022/12/21 16:40:00;;;;;;;31.95;16.48;;;8.10;99.90;;;;;;6203576;23;20009;-88
2022/12/21 16:42:36;;;;;;;33.17;19.40;;;8.20;99.90;;;;;;6204627;23;20020;-87
2022/12/21 16:45:20;;;;;;;32.60;18.65;;;8.20;99.90;;;;;;6198607;23;20013;-88
2022/12/21 16:48:15;;;;;;;35.50;28.95;;;8.10;99.90;;;;;;6176915;23;20024;-86
2022/12/21 16:50:46;;;;;;;33.35;20.33;;;8.20;99.90;;;;;;6201445;23;20027;-87
2022/12/21 16:53:40;;;;;;;29.05;15.98;;;8.10;99.90;;;;;;6208524;23;20009;-90
2022/12/21 16:56:15;;;;;;;32.03;16.27;;;8.10;99.90;;;;;;6208038;23;20008;-86
2022/12/21 16:58:57;;;;;;;29.17;16.23;;;8.00;99.90;;;;;;6179937;23;20031;-86
2022/12/21 17:01:52;;;;;;;28.73;17.05;;;8.00;99.90;;;;;;6205703;23;20025;-87
2022/12/21 17:04:28;;;;;;;33.85;26.23;;;8.00;99.90;;;;;;6179806;23;20017;-87
2022/12/21 17:06:57;;;;;;;28.45;16.15;;;8.10;99.90;;;;;;6186735;23;20017;-87
2022/12/21 17:09:23;;;;;;;25.85;14.63;;;8.10;99.90;;;;;;6184026;23;20013;-87
2022/12/21 17:12:00;;;;;;;25.92;13.10;;;8.00;99.90;;;;;;6209565;23;20016;-88
2022/12/21 17:14:26;;;;;;;30.58;24.42;;;8.10;99.90;;;;;;6184909;23;20056;-89
2022/12/21 17:17:07;;;;;;;30.52;23.65;;;8.10;99.90;;;;;;6184875;23;20087;-87
2022/12/21 17:19:34;;;;;;;24.92;13.88;;;8.10;99.90;;;;;;6187836;23;20097;-88
2022/12/21 17:22:06;;;;;;;26.55;13.27;;;8.10;99.90;;;;;;6183879;23;20017;-89
2022/12/21 17:24:38;;;;;;;27.13;14.43;;;8.10;99.90;;;;;;6186871;23;20045;-87
2022/12/21 17:27:18;;;;;;;23.33;13.63;;;8.10;99.90;;;;;;6184656;23;20515;-87
2022/12/21 17:29:44;;;;;;;27.75;15.55;;;8.10;99.90;;;;;;6183747;23;20048;-88
2022/12/21 17:32:18;;;;;;;27.27;14.50;;;8.10;99.90;;;;;;6183708;23;20021;-88
2022/12/21 17:34:45;;;;;;;29.10;22.48;;;8.10;99.90;;;;;;6183481;23;20013;-90
2022/12/21 17:37:15;;;;;;;26.80;15.27;;;8.10;99.90;;;;;;6184281;23;20021;-88
2022/12/21 17:39:43;;;;;;;23.77;12.40;;;8.10;99.90;;;;;;6188539;23;20059;-89
2022/12/21 17:42:15;;;;;;;30.00;22.50;;;8.10;99.90;;;;;;6162358;23;20084;-87
2022/12/21 17:44:41;;;;;;;31.73;14.77;;;8.10;99.90;;;;;;6187752;23;20094;-88
2022/12/21 17:47:25;;;;;;;24.17;12.75;;;8.10;99.90;;;;;;6186994;23;20327;-86
2022/12/21 17:49:51;;;;;;;28.50;23.85;;;8.00;99.90;;;;;;6183953;23;20020;-88
2022/12/21 17:52:17;;;;;;;32.05;23.88;;;8.10;99.90;;;;;;6185880;23;20056;-87
2022/12/21 17:54:43;;;;;;;28.40;15.80;;;8.10;99.90;;;;;;6184309;23;20017;-87
2022/12/21 17:57:16;;;;;;;25.92;13.70;;;8.10;99.90;;;;;;6183714;23;20016;-88
2022/12/21 17:59:42;;;;;;;25.52;14.70;;;8.10;99.90;;;;;;6184622;23;20080;-88
2022/12/21 18:02:14;;;;;;;29.25;23.15;;;8.10;99.90;;;;;;6183082;23;20103;-88
2022/12/21 18:04:40;;;;;;;29.75;23.67;;;8.10;99.90;;;;;;6183931;23;20071;-89
2022/12/21 18:07:10;;;;;;;29.67;22.42;;;8.10;99.90;;;;;;6184099;23;20013;-86
2022/12/21 18:09:36;;;;;;;29.35;22.02;;;8.20;99.90;;;;;;6185008;23;20021;-88
2022/12/21 18:12:04;;;;;;;25.48;14.82;;;8.20;99.90;;;;;;6185882;23;20052;-88
2022/12/21 18:14:30;;;;;;;28.45;22.55;;;8.10;99.90;;;;;;6184725;23;20017;-87
2022/12/21 18:16:56;;;;;;;26.67;21.13;;;8.10;99.90;;;;;;6209500;23;20055;-87
2022/12/21 18:19:22;;;;;;;25.73;21.38;;;8.20;99.90;;;;;;6184980;23;20013;-88
2022/12/21 18:21:47;;;;;;;28.08;20.13;;;8.20;99.90;;;;;;6184290;23;20020;-86
2022/12/21 18:24:13;;;;;;;21.45;12.73;;;8.20;99.90;;;;;;6186494;23;20375;-88
2022/12/21 18:26:39;;;;;;;24.73;11.82;;;8.10;99.90;;;;;;6189789;23;20052;-89
2022/12/21 18:29:11;;;;;;;24.35;12.90;;;8.10;99.90;;;;;;6201178;23;20024;-87
2022/12/21 18:31:37;;;;;;;21.10;12.57;;;8.10;99.90;;;;;;6169948;23;20098;-86
2022/12/21 18:34:03;;;;;;;24.63;18.85;;;8.10;99.90;;;;;;6200582;23;20017;-87
2022/12/21 18:36:32;;;;;;;26.38;19.95;;;8.10;99.90;;;;;;6192667;23;20323;-89
2022/12/21 18:39:00;;;;;;;22.45;12.52;;;8.10;99.90;;;;;;6200744;23;20028;-85
2022/12/21 18:41:27;;;;;;;24.52;13.63;;;8.10;99.90;;;;;;6186907;23;20334;-84
2022/12/21 18:43:53;;;;;;;21.15;11.00;;;8.10;99.90;;;;;;6186407;23;20077;-86
2022/12/21 18:46:23;;;;;;;22.20;11.95;;;8.10;99.90;;;;;;6187893;23;20383;-85
2022/12/21 18:48:50;;;;;;;24.40;13.20;;;8.00;99.90;;;;;;6186413;23;20056;-85
2022/12/21 18:51:40;;;;;;;20.73;11.27;;;8.00;99.90;;;;;;6192056;23;20017;-85
2022/12/21 18:54:20;;;;;;;26.58;20.38;;;8.00;99.90;;;;;;6210002;23;19997;-84
2022/12/21 18:56:47;;;;;;;28.38;21.05;;;8.00;99.90;;;;;;6209782;23;20047;-88
2022/12/21 18:59:14;;;;;;;26.60;13.05;;;8.00;99.90;;;;;;6184309;23;20009;-85
2022/12/21 19:01:40;;;;;;;23.80;12.48;;;8.00;99.90;;;;;;6209446;23;20038;-89
2022/12/21 19:04:27;;;;;;;22.92;12.57;;;7.90;99.90;;;;;;6185375;23;20028;-90
2022/12/21 19:06:53;;;;;;;22.38;11.90;;;8.00;99.90;;;;;;6210291;23;20033;-88
2022/12/21 19:09:22;;;;;;;26.25;14.15;;;8.00;99.90;;;;;;6210556;23;20016;-89
2022/12/21 19:11:48;;;;;;;29.45;21.90;;;7.90;99.90;;;;;;6210353;23;20032;-88
2022/12/21 19:14:18;;;;;;;24.67;13.65;;;8.10;99.90;;;;;;6210794;23;20023;-89
2022/12/21 19:16:47;;;;;;;20.55;11.52;;;8.00;99.90;;;;;;6209630;23;20021;-87
2022/12/21 19:19:19;;;;;;;39.95;13.55;;;8.00;99.90;;;;;;6209175;23;20005;-88
2022/12/21 19:21:49;;;;;;;29.58;22.77;;;8.10;99.90;;;;;;6183794;23;20005;-88
2022/12/21 19:24:22;;;;;;;30.58;22.17;;;8.10;99.90;;;;;;6208834;23;20031;-88
2022/12/21 19:26:48;;;;;;;27.17;22.83;;;8.20;99.90;;;;;;6181669;23;20017;-87
2022/12/21 19:29:19;;;;;;;25.80;13.73;;;8.20;99.90;;;;;;6210660;23;20016;-88
2022/12/21 19:31:45;;;;;;;25.02;13.30;;;8.20;99.90;;;;;;6210038;23;20032;-88
2022/12/21 19:34:11;;;;;;;27.00;23.55;;;8.20;99.90;;;;;;6209977;23;20008;-89
2022/12/21 19:36:39;;;;;;;28.05;23.50;;;8.30;99.90;;;;;;6184906;23;20001;-89
2022/12/21 19:39:09;;;;;;;28.27;23.65;;;8.30;99.90;;;;;;6205923;23;20049;-88
2022/12/21 19:41:34;;;;;;;30.98;23.80;;;8.30;99.90;;;;;;6206513;23;20020;-85
2022/12/21 19:44:00;;;;;;;27.42;16.00;;;8.30;99.90;;;;;;6207017;23;20013;-88
2022/12/21 19:46:28;;;;;;;29.98;23.67;;;8.30;99.90;;;;;;6204368;23;20040;-88
2022/12/21 19:48:56;;;;;;;29.83;25.27;;;8.40;99.90;;;;;;6189599;23;20330;-90
2022/12/21 19:51:23;;;;;;;25.83;14.07;;;8.40;99.90;;;;;;6185707;23;20005;-89
2022/12/21 19:53:50;;;;;;;25.65;14.23;;;8.30;99.90;;;;;;6185936;23;20068;-89
2022/12/21 19:56:18;;;;;;;31.65;25.05;;;8.30;99.90;;;;;;6186723;23;20065;-88
2022/12/21 19:58:45;;;;;;;28.77;24.13;;;8.30;99.90;;;;;;6185238;23;20024;-88
2022/12/21 20:01:24;;;;;;;30.40;17.90;;;8.30;99.90;;;;;;6184558;23;20017;-89
2022/12/21 20:03:50;;;;;;;32.58;25.98;;;8.30;99.90;;;;;;6186269;23;20142;-89
2022/12/21 20:06:16;;;;;;;28.02;15.88;;;8.20;99.90;;;;;;6211690;23;20447;-89
2022/12/21 20:08:42;;;;;;;32.95;26.38;;;8.20;99.90;;;;;;6159615;23;20021;-89
2022/12/21 20:11:26;;;;;;;25.25;14.15;;;8.30;99.90;;;;;;6184648;23;20021;-89
2022/12/21 20:13:55;;;;;;;39.75;28.08;;;8.20;99.90;;;;;;6191843;23;20043;-89
2022/12/21 20:16:24;;;;;;;31.90;18.20;;;8.20;99.90;;;;;;6185084;23;20017;-89
2022/12/21 20:18:50;;;;;;;36.22;26.63;;;8.20;99.90;;;;;;6187783;23;20411;-88
2022/12/21 20:21:23;;;;;;;29.02;17.17;;;8.20;99.90;;;;;;6183897;23;20020;-88
2022/12/21 20:23:51;;;;;;;28.60;15.57;;;8.20;99.90;;;;;;6184807;23;20024;-89
2022/12/21 20:26:24;;;;;;;37.65;27.70;;;8.10;99.90;;;;;;6183599;23;20347;-86
2022/12/21 20:28:53;;;;;;;36.90;28.23;;;8.20;99.90;;;;;;6206613;23;20013;-88
2022/12/21 20:31:20;;;;;;;27.30;15.95;;;8.20;99.90;;;;;;6185701;23;20122;-88
2022/12/21 20:33:47;;;;;;;37.03;28.52;;;8.10;99.90;;;;;;6211358;23;20027;-88
2022/12/21 20:36:27;;;;;;;33.67;26.80;;;8.10;99.90;;;;;;6192535;23;20077;-88
2022/12/21 20:38:53;;;;;;;29.00;15.40;;;8.20;99.90;;;;;;6192904;23;20017;-87
2022/12/21 20:41:20;;;;;;;29.33;15.90;;;8.10;99.90;;;;;;6188602;23;20320;-88
2022/12/21 20:43:47;;;;;;;25.38;15.05;;;8.20;99.90;;;;;;6190093;23;20012;-88
2022/12/21 20:46:28;;;;;;;28.52;17.02;;;8.20;99.90;;;;;;6191729;23;20048;-88
2022/12/21 20:48:54;;;;;;;27.95;16.77;;;8.10;99.90;;;;;;6168863;23;20017;-87
2022/12/21 20:51:21;;;;;;;27.38;16.90;;;8.20;99.90;;;;;;6170747;23;20013;-89
2022/12/21 20:53:48;;;;;;;32.80;25.88;;;8.20;99.90;;;;;;6202480;23;20032;-89
2022/12/21 20:59:12;;;;;;;41.55;30.48;;;8.30;99.90;;;;;;6184995;23;20017;-87
2022/12/21 21:02:03;;;;;;;28.77;17.30;;;8.30;99.90;;;;;;6205829;23;20024;-89
2022/12/21 21:04:31;;;;;;;28.90;17.40;;;8.30;99.90;;;;;;6202790;23;20017;-86
2022/12/21 21:06:57;;;;;;;39.03;30.30;;;8.20;99.90;;;;;;6185576;23;20008;-86
2022/12/21 21:09:24;;;;;;;40.03;29.98;;;8.30;99.90;;;;;;6187381;23;20509;-86
2022/12/21 21:11:51;;;;;;;41.42;31.95;;;8.30;99.90;;;;;;6184370;23;20343;-84
2022/12/21 21:14:18;;;;;;;39.25;30.67;;;8.40;99.90;;;;;;6184643;23;20021;-85
2022/12/21 21:16:43;;;;;;;40.50;32.05;;;8.40;99.90;;;;;;6184322;23;20017;-84
2022/12/21 21:19:24;;;;;;;32.88;20.63;;;8.40;99.90;;;;;;6185292;23;20021;-85
2022/12/21 21:24:36;;;;;;;32.35;18.83;;;8.30;99.90;;;;;;6188299;23;20080;-85
2022/12/21 21:27:02;;;;;;;41.50;31.90;;;8.30;99.90;;;;;;6160179;23;20017;-86
2022/12/21 21:29:28;;;;;;;46.10;34.58;;;8.40;99.90;;;;;;6187632;23;20087;-86
2022/12/21 21:31:53;;;;;;;41.65;33.28;;;8.40;99.90;;;;;;6186919;23;20027;-86
2022/12/21 21:34:19;;;;;;;40.00;33.58;;;8.50;99.90;;;;;;6186126;23;20027;-86
2022/12/21 21:36:47;;;;;;;34.22;19.27;;;8.50;99.90;;;;;;6186094;23;20021;-86
2022/12/21 21:42:14;;;;;;;28.88;17.23;;;8.40;99.90;;;;;;6184921;23;20032;-84